Terminal Aerodrome Forecast
Issued by NWS Cleveland, OH

Home | Current Version | Previous Version | Graphics & Text | Print | Product List | Glossary Off
Versions: 1 2 3 4 5 6 7 8 9 10 11 12 13 14 15 16 17 18 19

795
FTUS41 KCLE 301128
TAFYNG
TAF
KYNG 301128Z 3012/0112 09005KT 2SM BR OVC005
     FM301300 09005KT 2SM BR OVC008
     FM301500 09005KT P6SM SCT008 BKN012
     FM301700 09006KT P6SM SCT020 BKN150
     FM302300 09006KT 6SM -RA BR OVC035
      TEMPO 0100/0104 3SM -RA BR OVC020
     FM010400 12010KT 3SM -RA BR OVC010
     FM010800 18010KT 3SM -RA BR OVC010=

USA.gov is the U.S. government's official web portal to all federal, state and local government web resources and services.